This is the latest recevied weather packets stored in our database for station/object W5HKR. If no packets are shown the sender has not sent any weather packets the latest 10 day(s).
| Time | Temp. | Humidity | Pressure | Rain* | Wind** | Luminosity | Snow |
|---|---|---|---|---|---|---|---|
| 1777951107 | 18.33° C | 91% | 990.6 hPa | 0 mm | - | - | - |
| 1777950807 | 18.33° C | 91% | 990.6 hPa | 0 mm | - | - | - |
| 1777950597 | 22.78° C | 82% | 982 hPa | 0 mm | - | - | - |
| 1777950508 | 22.78° C | 82% | 981.8 hPa | 0 mm | - | - | - |
| 1777949908 | 18.33° C | 91% | 990.6 hPa | 0 mm | - | - | - |
| 1777949608 | 22.78° C | 81% | 981.7 hPa | 0 mm | - | - | - |
| 1777949517 | 22.78° C | 80% | 981.7 hPa | 0 mm | - | - | - |
| 1777949307 | 18.33° C | 91% | 990.6 hPa | 0 mm | - | - | - |
| 1777949008 | 23.33° C | 80% | 982 hPa | 0 mm | - | - | - |
| 1777948709 | 18.33° C | 91% | 990.6 hPa | 0 mm | - | - | - |
| 1777948437 | 18.33° C | 91% | 990.6 hPa | 0 mm | - | - | - |
| 1777948407 | 18.33° C | 91% | 990.6 hPa | 0 mm | - | - | - |
| 1777948107 | 23.33° C | 79% | 981.4 hPa | 0 mm | - | - | - |
| 1777947809 | 18.33° C | 91% | 990.6 hPa | 0 mm | - | - | - |
| 1777947507 | 23.33° C | 79% | 981.2 hPa | 0 mm | - | - | - |
| 1777947359 | 23.33° C | 79% | 981.2 hPa | 0 mm | - | - | - |
| 1777947207 | 23.33° C | 78% | 981.4 hPa | 0 mm | - | - | - |
| 1777946907 | 18.33° C | 91% | 990.6 hPa | 0 mm | - | - | - |
| 1777946610 | 18.33° C | 91% | 990.6 hPa | 0 mm | - | - | - |
| 1777946308 | 18.33° C | 91% | 990.6 hPa | 0 mm | - | - | - |
| 1777946278 | 18.33° C | 91% | 990.6 hPa | 0 mm | - | - | - |
| 1777946009 | 18.33° C | 91% | 990.6 hPa | 0 mm | - | - | - |
| 1777945708 | 18.33° C | 91% | 990.6 hPa | 0 mm | - | - | - |
| 1777945407 | 23.89° C | 76% | 981.6 hPa | 0 mm | - | - | - |
| 1777945197 | 23.89° C | 76% | 981.3 hPa | 0 mm | - | - | - |
* Rain latest hour (hover to see other rain measurements)
** Current wind speed in m/s (hover to see current wind gust speed)